Time;durP1;ratioP1;P1;durP2;ratioP2;P2;SDS_P1;SDS_P2;PMS_P1;PMS_P2;Temp;Humidity;BMP_temperature;BMP_pressure;BME280_temperature;BME280_humidity;BME280_pressure;Samples;Min_cycle;Max_cycle;Signal;HPM_P1;HPM_P2
2022/07/23 00:00:10;;;;;;;;;;;29.30;89.50;;;;;;5056714;28;19937;-53
2022/07/23 00:02:36;;;;;;;;;;;29.20;89.60;;;;;;5055134;28;19923;-54
2022/07/23 00:05:02;;;;;;;;;;;29.20;89.70;;;;;;5042959;28;19913;-56
2022/07/23 00:07:29;;;;;;;;;;;29.20;89.80;;;;;;5043769;28;19917;-53
2022/07/23 00:09:55;;;;;;;;;;;29.20;89.90;;;;;;5043464;28;19905;-60
2022/07/23 00:12:21;;;;;;;;;;;29.20;90.00;;;;;;5043494;28;19921;-57
2022/07/23 00:14:47;;;;;;;;;;;29.10;89.90;;;;;;5043480;28;19905;-56
2022/07/23 00:17:13;;;;;;;;;;;29.10;90.10;;;;;;5043659;28;19916;-61
2022/07/23 00:19:39;;;;;;;;;;;29.10;90.00;;;;;;5043147;28;19913;-54
2022/07/23 00:22:05;;;;;;;;;;;29.10;90.00;;;;;;5043331;28;19941;-58
2022/07/23 00:24:32;;;;;;;;;;;29.10;90.00;;;;;;5043037;28;20097;-58
2022/07/23 00:26:58;;;;;;;;;;;29.10;89.90;;;;;;5043337;28;20153;-58
2022/07/23 00:29:24;;;;;;;;;;;29.10;89.40;;;;;;5043356;28;19905;-55
2022/07/23 00:31:50;;;;;;;;;;;29.00;89.30;;;;;;5043558;28;20207;-58
2022/07/23 00:34:16;;;;;;;;;;;29.00;88.90;;;;;;5038994;28;20128;-56
2022/07/23 00:36:42;;;;;;;;;;;28.90;88.70;;;;;;5014803;28;19921;-55
2022/07/23 00:39:08;;;;;;;;;;;28.90;88.50;;;;;;5014589;28;19906;-52
2022/07/23 00:41:34;;;;;;;;;;;28.90;88.80;;;;;;5023382;28;19920;-50
2022/07/23 00:44:19;;;;;;;;;;;28.80;88.90;;;;;;5024022;28;19937;-50
2022/07/23 00:46:49;;;;;;;;;;;28.70;88.80;;;;;;5012374;28;19949;-52
2022/07/23 00:49:15;;;;;;;;;;;28.70;88.90;;;;;;5017520;28;20160;-55
2022/07/23 00:51:42;;;;;;;;;;;28.60;88.80;;;;;;5016941;28;19962;-57
2022/07/23 00:54:08;;;;;;;;;;;28.60;88.80;;;;;;5003871;28;20136;-56
2022/07/23 00:56:35;;;;;;;;;;;28.60;88.70;;;;;;5006356;28;19930;-54
2022/07/23 00:59:01;;;;;;;;;;;28.60;88.60;;;;;;5019972;28;20093;-54
2022/07/23 01:01:27;;;;;;;;;;;28.50;88.70;;;;;;5019264;28;20189;-60
2022/07/23 01:03:54;;;;;;;;;;;28.50;88.70;;;;;;5022845;28;19920;-54
2022/07/23 01:06:20;;;;;;;;;;;28.40;88.70;;;;;;5021839;28;19951;-60
2022/07/23 01:08:46;;;;;;;;;;;28.40;88.70;;;;;;5023031;28;19913;-54
2022/07/23 01:11:13;;;;;;;;;;;28.40;88.70;;;;;;5015420;28;19921;-55
2022/07/23 01:13:45;;;;;;;;;;;28.50;88.90;;;;;;5003678;28;19906;-57
2022/07/23 01:16:11;;;;;;;;;;;28.40;89.00;;;;;;5002222;28;19913;-55
2022/07/23 01:18:37;;;;;;;;;;;28.40;88.80;;;;;;5003192;28;20003;-57
2022/07/23 01:21:04;;;;;;;;;;;28.30;88.70;;;;;;5003470;28;19951;-57
2022/07/23 01:23:30;;;;;;;;;;;28.30;88.90;;;;;;5003459;28;19912;-52
2022/07/23 01:25:56;;;;;;;;;;;28.30;88.90;;;;;;5002884;28;19906;-54
2022/07/23 01:28:22;;;;;;;;;;;28.20;88.90;;;;;;5006707;28;19973;-58
2022/07/23 01:30:48;;;;;;;;;;;28.20;89.10;;;;;;5012151;28;20098;-55
2022/07/23 01:33:15;;;;;;;;;;;28.10;89.50;;;;;;5011788;28;19918;-53
2022/07/23 01:35:41;;;;;;;;;;;28.10;89.60;;;;;;5002879;28;19906;-53
2022/07/23 01:38:07;;;;;;;;;;;28.00;89.70;;;;;;5003680;28;19918;-58
2022/07/23 01:40:33;;;;;;;;;;;27.90;89.90;;;;;;5002735;28;19985;-53
2022/07/23 01:42:59;;;;;;;;;;;27.90;90.00;;;;;;5003627;28;20229;-55
2022/07/23 01:45:26;;;;;;;;;;;27.90;90.00;;;;;;5003071;28;19951;-56
2022/07/23 01:47:52;;;;;;;;;;;27.90;90.20;;;;;;5003504;28;19914;-55
2022/07/23 01:50:18;;;;;;;;;;;27.90;90.20;;;;;;5003029;28;20257;-55
2022/07/23 01:52:44;;;;;;;;;;;27.90;90.20;;;;;;5011426;28;19946;-59
2022/07/23 01:55:10;;;;;;;;;;;27.90;90.20;;;;;;5019976;28;19913;-52
2022/07/23 01:57:37;;;;;;;;;;;27.90;90.30;;;;;;5021398;28;19985;-53
2022/07/23 02:00:03;;;;;;;;;;;27.90;90.20;;;;;;5012981;28;19909;-55
2022/07/23 02:02:29;;;;;;;;;;;27.90;90.00;;;;;;5021495;28;19992;-55
2022/07/23 02:04:55;;;;;;;;;;;27.90;89.90;;;;;;5020999;28;19955;-62
2022/07/23 02:07:21;;;;;;;;;;;28.00;89.70;;;;;;5021786;28;19913;-60
2022/07/23 02:09:48;;;;;;;;;;;28.00;89.70;;;;;;5022233;28;19906;-56
2022/07/23 02:12:14;;;;;;;;;;;28.00;89.70;;;;;;5022283;28;19963;-60
2022/07/23 02:14:40;;;;;;;;;;;28.00;90.00;;;;;;5021563;28;20093;-57
2022/07/23 02:17:06;;;;;;;;;;;28.00;89.90;;;;;;5022103;28;19913;-53
2022/07/23 02:19:32;;;;;;;;;;;28.00;89.90;;;;;;5021676;28;19905;-55
2022/07/23 02:21:59;;;;;;;;;;;28.00;90.00;;;;;;5022068;28;19955;-53
2022/07/23 02:24:25;;;;;;;;;;;28.00;90.00;;;;;;5021856;28;19906;-53
2022/07/23 02:26:51;;;;;;;;;;;28.00;90.10;;;;;;5021639;28;19937;-54
2022/07/23 02:29:17;;;;;;;;;;;28.10;90.00;;;;;;5022020;28;19927;-55
2022/07/23 02:31:43;;;;;;;;;;;28.10;90.00;;;;;;5022246;28;19917;-53
2022/07/23 02:34:11;;;;;;;;;;;28.10;90.00;;;;;;5021863;28;19906;-51
2022/07/23 02:36:38;;;;;;;;;;;28.10;89.70;;;;;;5021954;28;20155;-53
2022/07/23 02:39:05;;;;;;;;;;;28.10;89.40;;;;;;5022110;28;19905;-54
2022/07/23 02:41:31;;;;;;;;;;;28.00;88.80;;;;;;5021737;28;20015;-57
2022/07/23 02:43:57;;;;;;;;;;;28.10;88.70;;;;;;5021630;28;19954;-53
2022/07/23 02:46:23;;;;;;;;;;;28.00;88.20;;;;;;5021657;28;19921;-58
2022/07/23 02:48:49;;;;;;;;;;;28.10;88.20;;;;;;5021436;28;19950;-55
2022/07/23 02:51:18;;;;;;;;;;;28.00;88.00;;;;;;5020249;28;20185;-54
2022/07/23 02:53:44;;;;;;;;;;;28.00;88.00;;;;;;5021650;28;20097;-53
2022/07/23 02:56:10;;;;;;;;;;;28.00;88.00;;;;;;5021643;28;19963;-52
2022/07/23 02:58:36;;;;;;;;;;;28.00;88.00;;;;;;5021361;28;19913;-52
2022/07/23 03:01:03;;;;;;;;;;;28.00;88.10;;;;;;5021511;28;19950;-53
2022/07/23 03:03:29;;;;;;;;;;;28.00;88.20;;;;;;5021608;28;19976;-62
2022/07/23 03:05:55;;;;;;;;;;;28.00;88.30;;;;;;5021884;28;19978;-52
2022/07/23 03:08:22;;;;;;;;;;;28.00;88.40;;;;;;5021739;28;19972;-51
2022/07/23 03:10:48;;;;;;;;;;;28.00;88.60;;;;;;5022333;28;19909;-53
2022/07/23 03:13:14;;;;;;;;;;;28.00;88.60;;;;;;5021583;28;19964;-53
2022/07/23 03:15:40;;;;;;;;;;;28.00;88.70;;;;;;5022089;28;19905;-54
2022/07/23 03:18:06;;;;;;;;;;;28.00;88.80;;;;;;5021805;28;19988;-53
2022/07/23 03:20:32;;;;;;;;;;;28.00;88.90;;;;;;5021409;28;19970;-54
2022/07/23 03:23:07;;;;;;;;;;;28.00;88.70;;;;;;5022146;28;20189;-54
2022/07/23 03:25:33;;;;;;;;;;;28.00;88.60;;;;;;5021463;28;19905;-56
2022/07/23 03:28:02;;;;;;;;;;;28.00;88.40;;;;;;5021181;28;19919;-55
2022/07/23 03:30:29;;;;;;;;;;;28.00;88.60;;;;;;5021297;28;19905;-55
2022/07/23 03:32:55;;;;;;;;;;;28.00;88.70;;;;;;5020083;28;19917;-55
2022/07/23 03:35:21;;;;;;;;;;;28.00;88.70;;;;;;5021183;28;19941;-53
2022/07/23 03:37:47;;;;;;;;;;;28.00;88.70;;;;;;5021796;28;19948;-55
2022/07/23 03:40:13;;;;;;;;;;;28.00;89.00;;;;;;5024671;28;20101;-55
2022/07/23 03:42:41;;;;;;;;;;;27.90;89.20;;;;;;5024208;28;20105;-55
2022/07/23 03:45:08;;;;;;;;;;;27.90;89.30;;;;;;5023671;28;19937;-60
2022/07/23 03:47:34;;;;;;;;;;;27.90;89.30;;;;;;5024840;28;19913;-58
2022/07/23 03:50:00;;;;;;;;;;;27.90;89.10;;;;;;5024185;28;19906;-54
2022/07/23 03:52:26;;;;;;;;;;;27.90;89.00;;;;;;5024327;28;19921;-53
2022/07/23 03:54:52;;;;;;;;;;;27.90;88.80;;;;;;5022999;28;19967;-53
2022/07/23 03:57:19;;;;;;;;;;;27.90;88.80;;;;;;5024044;28;19914;-54
2022/07/23 03:59:45;;;;;;;;;;;27.90;88.80;;;;;;5024117;28;19905;-54
2022/07/23 04:02:11;;;;;;;;;;;27.90;88.60;;;;;;5024366;28;19963;-53
2022/07/23 04:04:37;;;;;;;;;;;27.90;88.70;;;;;;5024733;28;19905;-56
2022/07/23 04:07:03;;;;;;;;;;;27.80;88.50;;;;;;5024155;28;19913;-52
2022/07/23 04:09:29;;;;;;;;;;;27.90;88.50;;;;;;5024110;28;19943;-54
2022/07/23 04:11:59;;;;;;;;;;;27.90;88.40;;;;;;5024358;28;19921;-56
2022/07/23 04:14:45;;;;;;;;;;;27.80;88.10;;;;;;5023974;28;19959;-57
2022/07/23 04:17:14;;;;;;;;;;;27.80;88.00;;;;;;5024723;28;19977;-58
2022/07/23 04:19:43;;;;;;;;;;;27.80;87.70;;;;;;5022894;28;19912;-52
2022/07/23 04:22:09;;;;;;;;;;;27.90;88.00;;;;;;5023945;28;19913;-52
2022/07/23 04:24:36;;;;;;;;;;;27.80;87.90;;;;;;5023763;28;19909;-54
2022/07/23 04:27:02;;;;;;;;;;;27.80;87.90;;;;;;5023740;28;19951;-55
2022/07/23 04:29:28;;;;;;;;;;;27.80;87.90;;;;;;5023893;28;20184;-56
2022/07/23 04:31:54;;;;;;;;;;;27.80;88.20;;;;;;5023729;28;19918;-52
2022/07/23 04:34:21;;;;;;;;;;;27.80;88.00;;;;;;5023540;28;19947;-53
2022/07/23 04:36:47;;;;;;;;;;;27.80;88.10;;;;;;5023672;28;19921;-54
2022/07/23 04:39:14;;;;;;;;;;;27.80;88.20;;;;;;5023550;28;19905;-55
2022/07/23 04:41:40;;;;;;;;;;;27.80;88.10;;;;;;5023341;28;19917;-54
2022/07/23 04:44:06;;;;;;;;;;;27.80;87.90;;;;;;5023550;28;19909;-55
2022/07/23 04:46:32;;;;;;;;;;;27.80;87.90;;;;;;5023516;28;19913;-53
2022/07/23 04:48:58;;;;;;;;;;;27.80;88.00;;;;;;5023135;28;19913;-56
2022/07/23 04:51:25;;;;;;;;;;;27.80;88.00;;;;;;5023427;28;19992;-59
2022/07/23 04:53:51;;;;;;;;;;;27.80;88.10;;;;;;5023420;28;19906;-52
2022/07/23 04:56:17;;;;;;;;;;;27.80;88.10;;;;;;5023147;28;19984;-53
2022/07/23 04:58:43;;;;;;;;;;;27.80;88.10;;;;;;5023386;28;19906;-54
2022/07/23 05:01:09;;;;;;;;;;;27.80;88.20;;;;;;5023287;28;20102;-55
2022/07/23 05:03:36;;;;;;;;;;;27.80;88.30;;;;;;5023072;28;19920;-55
2022/07/23 05:06:03;;;;;;;;;;;27.80;88.30;;;;;;5023858;28;20087;-52
2022/07/23 05:08:29;;;;;;;;;;;27.80;88.20;;;;;;5023165;28;19953;-54
2022/07/23 05:10:55;;;;;;;;;;;27.80;88.30;;;;;;5023149;28;19906;-53
2022/07/23 05:13:21;;;;;;;;;;;27.70;88.20;;;;;;5023298;28;19967;-52
2022/07/23 05:15:48;;;;;;;;;;;27.80;88.10;;;;;;5023113;28;19905;-59
2022/07/23 05:18:14;;;;;;;;;;;27.80;88.00;;;;;;5023443;28;19916;-55
2022/07/23 05:20:40;;;;;;;;;;;27.80;87.80;;;;;;5022828;28;19909;-54
2022/07/23 05:23:06;;;;;;;;;;;27.80;87.60;;;;;;5023365;28;19916;-55
2022/07/23 05:25:33;;;;;;;;;;;27.70;87.50;;;;;;5022872;28;20086;-56
2022/07/23 05:27:59;;;;;;;;;;;27.80;87.50;;;;;;5022586;28;19910;-56
2022/07/23 05:30:25;;;;;;;;;;;27.70;87.50;;;;;;5022836;28;19951;-53
2022/07/23 05:32:51;;;;;;;;;;;27.70;87.50;;;;;;5023093;28;19957;-54
2022/07/23 05:35:17;;;;;;;;;;;27.70;87.60;;;;;;5021498;28;20234;-53
2022/07/23 05:37:43;;;;;;;;;;;27.70;87.60;;;;;;5023180;28;19914;-54
2022/07/23 05:40:10;;;;;;;;;;;27.70;87.50;;;;;;5022815;28;19954;-57
2022/07/23 05:42:40;;;;;;;;;;;27.70;87.20;;;;;;5023001;28;20004;-58
2022/07/23 05:45:07;;;;;;;;;;;27.70;87.30;;;;;;5022614;28;19980;-53
2022/07/23 05:47:43;;;;;;;;;;;27.70;87.20;;;;;;5022939;28;20085;-52
2022/07/23 05:50:09;;;;;;;;;;;27.70;87.30;;;;;;5022309;28;20194;-55
2022/07/23 05:52:36;;;;;;;;;;;27.70;87.40;;;;;;5022615;28;20193;-54
2022/07/23 05:55:02;;;;;;;;;;;27.70;87.30;;;;;;5022385;28;19916;-53
2022/07/23 05:57:28;;;;;;;;;;;27.70;87.00;;;;;;5022512;28;19917;-53
2022/07/23 05:59:54;;;;;;;;;;;27.70;87.10;;;;;;5022371;28;19910;-54
2022/07/23 06:02:20;;;;;;;;;;;27.70;87.10;;;;;;5021632;28;20220;-54
2022/07/23 06:04:47;;;;;;;;;;;27.70;87.50;;;;;;5022088;28;19906;-53
2022/07/23 06:07:13;;;;;;;;;;;27.60;88.00;;;;;;5022489;28;19920;-58
2022/07/23 06:09:39;;;;;;;;;;;27.60;88.20;;;;;;5022239;28;19906;-55
2022/07/23 06:12:05;;;;;;;;;;;27.60;88.10;;;;;;5022134;28;19961;-54
2022/07/23 06:14:31;;;;;;;;;;;27.60;88.20;;;;;;5022173;28;19905;-53
2022/07/23 06:16:59;;;;;;;;;;;27.60;88.40;;;;;;5022189;28;19914;-56
2022/07/23 06:19:25;;;;;;;;;;;27.60;88.10;;;;;;5021906;28;19906;-52
2022/07/23 06:21:51;;;;;;;;;;;27.60;88.10;;;;;;5022223;28;19921;-54
2022/07/23 06:24:17;;;;;;;;;;;27.60;87.90;;;;;;5022100;28;19906;-53
2022/07/23 06:26:44;;;;;;;;;;;27.60;87.90;;;;;;5021808;28;20198;-55
2022/07/23 06:29:10;;;;;;;;;;;27.60;87.90;;;;;;5021896;28;19921;-59
2022/07/23 06:31:37;;;;;;;;;;;27.50;87.80;;;;;;5021895;28;19917;-54
2022/07/23 06:34:03;;;;;;;;;;;27.60;87.80;;;;;;5021768;28;19905;-51
2022/07/23 06:36:29;;;;;;;;;;;27.50;87.70;;;;;;5021770;28;19921;-53
2022/07/23 06:38:55;;;;;;;;;;;27.50;87.70;;;;;;5021776;28;19910;-52
2022/07/23 06:41:22;;;;;;;;;;;27.50;87.50;;;;;;5021753;28;19967;-51
2022/07/23 06:43:48;;;;;;;;;;;27.50;87.50;;;;;;5021491;28;20015;-53
2022/07/23 06:46:15;;;;;;;;;;;27.50;87.60;;;;;;5021898;28;19914;-52
2022/07/23 06:48:41;;;;;;;;;;;27.50;87.50;;;;;;5021651;28;19905;-53
2022/07/23 06:51:07;;;;;;;;;;;27.50;87.60;;;;;;5021350;28;19973;-54
2022/07/23 06:53:33;;;;;;;;;;;27.50;87.60;;;;;;5021466;28;19906;-53
2022/07/23 06:55:59;;;;;;;;;;;27.50;87.50;;;;;;5021478;28;19937;-53
2022/07/23 06:58:25;;;;;;;;;;;27.50;87.40;;;;;;5021412;28;19906;-52
2022/07/23 07:00:51;;;;;;;;;;;27.50;87.20;;;;;;5021363;28;19968;-56
2022/07/23 07:03:18;;;;;;;;;;;27.40;87.30;;;;;;5021397;28;19981;-53
2022/07/23 07:05:44;;;;;;;;;;;27.40;87.20;;;;;;5021270;28;20078;-52
2022/07/23 07:08:10;;;;;;;;;;;27.40;87.50;;;;;;5021871;28;19958;-54
2022/07/23 07:10:37;;;;;;;;;;;27.40;87.70;;;;;;5021392;28;20268;-55
2022/07/23 07:13:03;;;;;;;;;;;27.40;87.80;;;;;;5021489;28;19918;-56
2022/07/23 07:15:29;;;;;;;;;;;27.40;88.00;;;;;;5025109;28;19917;-53
2022/07/23 07:17:55;;;;;;;;;;;27.40;88.00;;;;;;5025174;28;19932;-53
2022/07/23 07:20:21;;;;;;;;;;;27.40;88.00;;;;;;5024794;28;19910;-55
2022/07/23 07:22:48;;;;;;;;;;;27.40;88.00;;;;;;5025013;28;19931;-58
2022/07/23 07:25:14;;;;;;;;;;;27.40;87.80;;;;;;5024672;28;20208;-57
2022/07/23 07:27:40;;;;;;;;;;;27.40;87.70;;;;;;5025005;28;19915;-54
2022/07/23 07:30:07;;;;;;;;;;;27.40;87.60;;;;;;5024453;28;20194;-53
2022/07/23 07:32:33;;;;;;;;;;;27.40;87.70;;;;;;5025003;28;19971;-54
2022/07/23 07:34:59;;;;;;;;;;;27.30;87.80;;;;;;5024394;28;19969;-54
2022/07/23 07:37:25;;;;;;;;;;;27.30;87.90;;;;;;5024683;28;19976;-54
2022/07/23 07:39:51;;;;;;;;;;;27.30;87.70;;;;;;5024429;28;19941;-54
2022/07/23 07:42:17;;;;;;;;;;;27.30;87.60;;;;;;5024782;28;20182;-55
2022/07/23 07:44:43;;;;;;;;;;;27.30;87.60;;;;;;5024218;28;19909;-56
2022/07/23 07:47:09;;;;;;;;;;;27.30;88.00;;;;;;5024480;28;19933;-55
2022/07/23 07:49:36;;;;;;;;;;;27.30;88.00;;;;;;5024266;28;19910;-55
2022/07/23 07:52:02;;;;;;;;;;;27.30;87.90;;;;;;5024163;28;19913;-58
2022/07/23 07:54:28;;;;;;;;;;;27.30;88.00;;;;;;5024323;28;19917;-52
2022/07/23 07:56:54;;;;;;;;;;;27.30;88.10;;;;;;5024324;28;20090;-52
2022/07/23 07:59:20;;;;;;;;;;;27.30;88.10;;;;;;5024197;28;19972;-54
2022/07/23 08:01:46;;;;;;;;;;;27.30;88.10;;;;;;5024154;28;19944;-54
2022/07/23 08:04:12;;;;;;;;;;;27.30;88.20;;;;;;5024353;28;19910;-53
2022/07/23 08:06:38;;;;;;;;;;;27.30;88.40;;;;;;5024229;28;19937;-53
2022/07/23 08:09:04;;;;;;;;;;;27.30;88.50;;;;;;5023860;28;20190;-51
2022/07/23 08:11:30;;;;;;;;;;;27.20;88.30;;;;;;5024014;28;19922;-50
2022/07/23 08:13:57;;;;;;;;;;;27.30;88.30;;;;;;5023939;28;19905;-52
2022/07/23 08:16:23;;;;;;;;;;;27.20;88.30;;;;;;5023837;28;19914;-55
2022/07/23 08:18:49;;;;;;;;;;;27.20;88.40;;;;;;5023864;28;20127;-55
2022/07/23 08:21:15;;;;;;;;;;;27.20;88.30;;;;;;5023983;28;19947;-53
2022/07/23 08:23:41;;;;;;;;;;;27.20;88.30;;;;;;5023383;28;19946;-55
2022/07/23 08:26:07;;;;;;;;;;;27.20;88.10;;;;;;5023580;28;19909;-61
2022/07/23 08:28:33;;;;;;;;;;;27.20;88.30;;;;;;5023646;28;19935;-55
2022/07/23 08:31:00;;;;;;;;;;;27.20;88.20;;;;;;5023451;28;20220;-52
2022/07/23 08:33:26;;;;;;;;;;;27.10;88.20;;;;;;5023629;28;19909;-51
2022/07/23 08:35:55;;;;;;;;;;;27.20;88.20;;;;;;5023563;28;19905;-51
2022/07/23 08:38:22;;;;;;;;;;;27.20;88.10;;;;;;5023446;28;20189;-52
2022/07/23 08:40:49;;;;;;;;;;;27.10;88.10;;;;;;5023504;28;20097;-55
2022/07/23 08:43:16;;;;;;;;;;;27.10;88.10;;;;;;5023452;28;19914;-52
2022/07/23 08:45:46;;;;;;;;;;;27.10;88.00;;;;;;5023334;28;19905;-56
2022/07/23 08:48:22;;;;;;;;;;;27.10;88.00;;;;;;5023908;28;19913;-56
2022/07/23 08:50:49;;;;;;;;;;;27.10;88.00;;;;;;5023296;28;19906;-54
2022/07/23 08:53:16;;;;;;;;;;;27.10;88.20;;;;;;5023360;28;20086;-54
2022/07/23 08:55:46;;;;;;;;;;;27.10;88.10;;;;;;5023293;28;20078;-59
2022/07/23 08:58:13;;;;;;;;;;;27.10;88.20;;;;;;5023196;28;19920;-55
2022/07/23 09:00:39;;;;;;;;;;;27.10;88.40;;;;;;5023027;28;19906;-56
2022/07/23 09:03:05;;;;;;;;;;;27.10;88.40;;;;;;5023128;28;20090;-57
2022/07/23 09:05:31;;;;;;;;;;;27.10;88.20;;;;;;5023210;28;20190;-55
2022/07/23 09:08:17;;;;;;;;;;;27.00;88.00;;;;;;5023394;28;19914;-51
2022/07/23 09:10:56;;;;;;;;;;;27.00;88.00;;;;;;5023061;28;19928;-51
2022/07/23 09:13:36;;;;;;;;;;;27.00;87.80;;;;;;5022976;28;19922;-51
2022/07/23 09:16:07;;;;;;;;;;;27.00;87.80;;;;;;5022937;28;19906;-51
2022/07/23 09:18:37;;;;;;;;;;;27.00;87.70;;;;;;5022837;28;19905;-57
2022/07/23 09:21:13;;;;;;;;;;;27.00;87.70;;;;;;5022872;28;19906;-60
2022/07/23 09:23:43;;;;;;;;;;;27.00;87.80;;;;;;5022819;28;20132;-60
2022/07/23 09:26:17;;;;;;;;;;;27.00;87.80;;;;;;5022814;28;19933;-57
2022/07/23 09:29:04;;;;;;;;;;;27.00;87.70;;;;;;5023104;28;19906;-57
2022/07/23 09:31:34;;;;;;;;;;;27.00;87.50;;;;;;5022773;28;19997;-57
2022/07/23 09:34:07;;;;;;;;;;;27.00;87.40;;;;;;5022675;28;19958;-54
2022/07/23 09:36:34;;;;;;;;;;;26.90;87.30;;;;;;5021860;28;20166;-58
2022/07/23 09:39:00;;;;;;;;;;;26.90;87.20;;;;;;5022675;28;19910;-59
2022/07/23 09:41:33;;;;;;;;;;;26.90;86.90;;;;;;5022493;28;20232;-56
2022/07/23 09:44:06;;;;;;;;;;;26.90;86.80;;;;;;5022503;28;19906;-59
2022/07/23 09:46:32;;;;;;;;;;;26.90;86.60;;;;;;5022615;28;19913;-60
2022/07/23 09:48:58;;;;;;;;;;;26.90;86.60;;;;;;5022344;28;19951;-56
2022/07/23 09:51:46;;;;;;;;;;;26.90;86.50;;;;;;5022577;28;19945;-57
2022/07/23 09:54:20;;;;;;;;;;;26.90;86.30;;;;;;5021983;28;19967;-60
2022/07/23 09:56:48;;;;;;;;;;;26.90;86.20;;;;;;5022514;28;19945;-51
2022/07/23 09:59:17;;;;;;;;;;;26.90;86.10;;;;;;5022320;28;19913;-52
2022/07/23 10:01:44;;;;;;;;;;;26.90;85.90;;;;;;5022134;28;19920;-55
2022/07/23 10:04:11;;;;;;;;;;;26.90;86.00;;;;;;5022262;28;20135;-54
2022/07/23 10:06:40;;;;;;;;;;;26.90;85.90;;;;;;5022347;28;19909;-57
2022/07/23 10:09:07;;;;;;;;;;;26.90;85.90;;;;;;5022371;28;19931;-53
2022/07/23 10:11:33;;;;;;;;;;;26.90;85.90;;;;;;5022577;28;19918;-55
2022/07/23 10:14:03;;;;;;;;;;;26.90;85.80;;;;;;5022144;28;19931;-54
2022/07/23 10:16:29;;;;;;;;;;;26.90;85.70;;;;;;5020931;28;19917;-56
2022/07/23 10:18:55;;;;;;;;;;;26.90;85.70;;;;;;5022118;28;19909;-56
2022/07/23 10:21:30;;;;;;;;;;;26.90;85.40;;;;;;5022088;28;19909;-59
2022/07/23 10:24:19;;;;;;;;;;;26.90;85.60;;;;;;5021945;28;19944;-52
2022/07/23 10:26:54;;;;;;;;;;;26.90;85.60;;;;;;5049733;28;19909;-56
2022/07/23 10:29:32;;;;;;;;;;;26.90;85.60;;;;;;5021856;28;20123;-53
2022/07/23 10:32:03;;;;;;;;;;;26.90;85.60;;;;;;5021944;28;19935;-54
2022/07/23 10:34:32;;;;;;;;;;;26.90;85.60;;;;;;5022068;28;19972;-52
2022/07/23 10:37:04;;;;;;;;;;;26.90;85.60;;;;;;5022011;28;19909;-55
2022/07/23 10:39:34;;;;;;;;;;;26.80;85.30;;;;;;5021541;28;20078;-55
2022/07/23 10:42:13;;;;;;;;;;;26.80;85.60;;;;;;5021950;28;20178;-60
2022/07/23 10:44:42;;;;;;;;;;;26.80;85.50;;;;;;5021579;28;20201;-59
2022/07/23 10:50:23;;;;;;;;;;;26.80;86.20;;;;;;5021038;28;19909;-55
2022/07/23 10:53:08;;;;;;;;;;;26.80;85.90;;;;;;5021863;28;19918;-53
2022/07/23 10:55:34;;;;;;;;;;;26.80;86.00;;;;;;5021553;28;19910;-52
2022/07/23 10:58:01;;;;;;;;;;;26.80;86.00;;;;;;5021998;28;19917;-53
2022/07/23 11:00:28;;;;;;;;;;;26.80;86.00;;;;;;5021357;28;19916;-54
2022/07/23 11:03:11;;;;;;;;;;;26.70;85.90;;;;;;5021476;28;19918;-54
2022/07/23 11:05:43;;;;;;;;;;;26.70;86.10;;;;;;5021446;28;20181;-54
2022/07/23 11:08:12;;;;;;;;;;;26.70;86.10;;;;;;5021836;28;19920;-54
2022/07/23 11:10:39;;;;;;;;;;;26.70;86.10;;;;;;5021334;28;19905;-51
2022/07/23 11:13:24;;;;;;;;;;;26.70;86.20;;;;;;5021043;28;19918;-59
2022/07/23 11:16:02;;;;;;;;;;;26.70;86.20;;;;;;5021557;28;19909;-57
2022/07/23 11:18:40;;;;;;;;;;;26.70;86.30;;;;;;5021717;28;19909;-64
2022/07/23 11:24:06;;;;;;;;;;;26.70;86.10;;;;;;5021352;28;19954;-62
2022/07/23 11:26:41;;;;;;;;;;;26.70;85.90;;;;;;5021224;28;20220;-51
2022/07/23 11:29:26;;;;;;;;;;;26.80;86.10;;;;;;5021412;28;20136;-55
2022/07/23 11:31:53;;;;;;;;;;;26.80;86.20;;;;;;5021024;28;19910;-51
2022/07/23 11:34:28;;;;;;;;;;;26.80;86.10;;;;;;5021355;28;19921;-53
2022/07/23 11:36:55;;;;;;;;;;;26.80;86.00;;;;;;5021067;28;19977;-57
2022/07/23 11:39:24;;;;;;;;;;;26.80;85.90;;;;;;5021429;28;19910;-53
2022/07/23 11:41:51;;;;;;;;;;;26.80;86.00;;;;;;5021276;28;19980;-58
2022/07/23 11:44:31;;;;;;;;;;;26.80;86.30;;;;;;5020524;28;19910;-56
2022/07/23 11:47:04;;;;;;;;;;;26.80;86.30;;;;;;5021277;28;19952;-55
2022/07/23 11:49:30;;;;;;;;;;;26.80;86.20;;;;;;5021516;28;20066;-54
2022/07/23 11:52:09;;;;;;;;;;;26.80;86.30;;;;;;5020796;28;20163;-57
2022/07/23 11:54:37;;;;;;;;;;;26.80;86.40;;;;;;5021235;28;20097;-54
2022/07/23 11:57:04;;;;;;;;;;;26.80;86.50;;;;;;5019841;28;19909;-55
2022/07/23 11:59:33;;;;;;;;;;;26.80;86.50;;;;;;5021903;28;19916;-54
2022/07/23 12:02:00;;;;;;;;;;;26.80;86.50;;;;;;5023981;28;19909;-52
2022/07/23 12:04:41;;;;;;;;;;;26.80;86.50;;;;;;5024361;28;19920;-51
2022/07/23 12:07:23;;;;;;;;;;;26.80;86.60;;;;;;5024106;28;20220;-53
2022/07/23 12:09:49;;;;;;;;;;;26.80;86.80;;;;;;5024184;28;20008;-53
2022/07/23 12:12:15;;;;;;;;;;;26.90;86.90;;;;;;5024410;28;20191;-53
2022/07/23 12:14:48;;;;;;;;;;;26.90;86.90;;;;;;5024096;28;19906;-53
2022/07/23 12:17:15;;;;;;;;;;;26.90;87.00;;;;;;5024034;28;19916;-58
2022/07/23 12:19:41;;;;;;;;;;;26.90;87.00;;;;;;5023060;28;20037;-54
2022/07/23 12:22:08;;;;;;;;;;;26.90;87.00;;;;;;5024186;28;19914;-52
2022/07/23 12:24:56;;;;;;;;;;;26.90;87.40;;;;;;5023825;28;19984;-54
2022/07/23 12:27:23;;;;;;;;;;;26.90;87.40;;;;;;5023927;28;19944;-58
2022/07/23 12:29:50;;;;;;;;;;;26.90;87.50;;;;;;5022706;28;20133;-58
2022/07/23 12:32:29;;;;;;;;;;;26.90;87.60;;;;;;5023392;28;19918;-58
2022/07/23 12:35:08;;;;;;;;;;;26.90;87.50;;;;;;5023563;28;20212;-61
2022/07/23 12:37:36;;;;;;;;;;;26.90;87.50;;;;;;5023833;28;19917;-60
2022/07/23 12:40:20;;;;;;;;;;;27.00;87.70;;;;;;5023594;28;19946;-61
2022/07/23 12:42:58;;;;;;;;;;;27.00;87.60;;;;;;5023666;28;19999;-51
2022/07/23 12:45:25;;;;;;;;;;;27.00;87.60;;;;;;5023838;28;20120;-53
2022/07/23 12:47:51;;;;;;;;;;;27.10;87.70;;;;;;5023259;28;19913;-50
2022/07/23 12:50:37;;;;;;;;;;;27.10;87.50;;;;;;5024207;28;20173;-47
2022/07/23 12:53:08;;;;;;;;;;;27.10;87.60;;;;;;5023662;28;19913;-48
2022/07/23 12:55:34;;;;;;;;;;;27.10;87.60;;;;;;5023747;28;19917;-52
2022/07/23 12:58:05;;;;;;;;;;;27.10;87.60;;;;;;5023440;28;20031;-48
2022/07/23 13:00:32;;;;;;;;;;;27.20;87.70;;;;;;5023124;28;19914;-49
2022/07/23 13:02:58;;;;;;;;;;;27.20;87.70;;;;;;5022963;28;19919;-49
2022/07/23 13:05:24;;;;;;;;;;;27.20;87.80;;;;;;5023256;28;20150;-49
2022/07/23 13:07:50;;;;;;;;;;;27.30;87.70;;;;;;5022948;28;19936;-51
2022/07/23 13:10:16;;;;;;;;;;;27.30;87.40;;;;;;5023030;28;19913;-55
2022/07/23 13:12:42;;;;;;;;;;;27.30;87.50;;;;;;5022856;28;19913;-53
2022/07/23 13:15:09;;;;;;;;;;;27.30;87.50;;;;;;5022662;28;19928;-56
2022/07/23 13:17:35;;;;;;;;;;;27.30;87.40;;;;;;5022855;28;19958;-55
2022/07/23 13:20:01;;;;;;;;;;;27.30;87.30;;;;;;5022725;28;19912;-56
2022/07/23 13:22:27;;;;;;;;;;;27.40;87.20;;;;;;5022784;28;19905;-58
2022/07/23 13:24:53;;;;;;;;;;;27.40;87.20;;;;;;5022478;28;19913;-51
2022/07/23 13:27:19;;;;;;;;;;;27.40;87.30;;;;;;5022649;28;20190;-52
2022/07/23 13:29:45;;;;;;;;;;;27.40;87.20;;;;;;5022615;28;19998;-54
2022/07/23 13:32:12;;;;;;;;;;;27.40;87.00;;;;;;5022992;28;19917;-53
2022/07/23 13:34:38;;;;;;;;;;;27.40;87.20;;;;;;5022688;28;19905;-54
2022/07/23 13:37:04;;;;;;;;;;;27.40;87.30;;;;;;5021617;28;19918;-54
2022/07/23 13:39:31;;;;;;;;;;;27.50;87.40;;;;;;5022341;28;20164;-54
2022/07/23 13:41:57;;;;;;;;;;;27.50;87.40;;;;;;5022974;28;19941;-57
2022/07/23 13:44:23;;;;;;;;;;;27.60;87.50;;;;;;5022663;28;19927;-59
2022/07/23 13:46:49;;;;;;;;;;;27.50;87.30;;;;;;5022761;28;20222;-54
2022/07/23 13:49:15;;;;;;;;;;;27.60;87.50;;;;;;5022378;28;19905;-58
2022/07/23 13:51:41;;;;;;;;;;;27.60;87.50;;;;;;5023438;28;20101;-60
2022/07/23 13:54:07;;;;;;;;;;;27.60;87.60;;;;;;5022492;28;19994;-57
2022/07/23 13:56:34;;;;;;;;;;;27.70;87.90;;;;;;5023623;28;20258;-57
2022/07/23 13:59:00;;;;;;;;;;;27.70;87.80;;;;;;5023231;28;19976;-62
2022/07/23 14:01:26;;;;;;;;;;;27.70;87.40;;;;;;5023396;28;19948;-63
2022/07/23 14:03:52;;;;;;;;;;;27.70;87.50;;;;;;5024997;28;19913;-65
2022/07/23 14:06:19;;;;;;;;;;;27.70;87.70;;;;;;5026903;28;19929;-62
2022/07/23 14:08:45;;;;;;;;;;;27.70;87.80;;;;;;5026122;28;20011;-63
2022/07/23 14:11:12;;;;;;;;;;;27.80;87.90;;;;;;5025019;28;19914;-60
2022/07/23 14:13:38;;;;;;;;;;;27.80;88.00;;;;;;5020946;28;19913;-61
2022/07/23 14:16:04;;;;;;;;;;;27.80;88.20;;;;;;5022473;28;19920;-61
2022/07/23 14:18:30;;;;;;;;;;;27.80;88.20;;;;;;5023042;28;19905;-62
2022/07/23 14:20:56;;;;;;;;;;;27.80;88.20;;;;;;5022227;28;20079;-61
2022/07/23 14:23:22;;;;;;;;;;;27.90;87.90;;;;;;5021567;28;19905;-62
2022/07/23 14:25:48;;;;;;;;;;;27.90;88.00;;;;;;5022242;28;19954;-53